Time;durP1;ratioP1;P1;durP2;ratioP2;P2;SDS_P1;SDS_P2;PMS_P1;PMS_P2;Temp;Humidity;BMP_temperature;BMP_pressure;BME280_temperature;BME280_humidity;BME280_pressure;Samples;Min_cycle;Max_cycle;Signal;HPM_P1;HPM_P2
2021/06/17 00:00:58;;;;;;;4.63;3.33;;;24.40;90.10;;;;;;2055266;28;20080;-69
2021/06/17 00:02:02;;;;;;;4.22;3.83;;;24.40;89.50;;;;;;2054563;28;20490;-69
2021/06/17 00:03:04;;;;;;;4.03;3.65;;;24.40;90.20;;;;;;2055315;28;20118;-69
2021/06/17 00:04:05;;;;;;;7.07;3.55;;;24.40;89.30;;;;;;2055288;28;20106;-69
2021/06/17 00:05:09;;;;;;;4.10;3.70;;;24.40;88.70;;;;;;2055432;28;20019;-69
2021/06/17 00:06:09;;;;;;;3.75;3.45;;;24.40;88.80;;;;;;2055680;28;20023;-69
2021/06/17 00:07:10;;;;;;;6.35;3.90;;;24.40;89.70;;;;;;2055114;28;20023;-69
2021/06/17 00:08:11;;;;;;;4.20;3.28;;;24.40;88.70;;;;;;2054592;28;20450;-69
2021/06/17 00:09:12;;;;;;;5.38;3.72;;;24.40;88.10;;;;;;2054226;28;20057;-69
2021/06/17 00:10:25;;;;;;;3.35;3.05;;;24.50;88.20;;;;;;2051625;28;20032;-69
2021/06/17 00:11:26;;;;;;;4.53;3.40;;;24.50;86.80;;;;;;2047397;28;20054;-69
2021/06/17 00:12:26;;;;;;;5.70;3.47;;;24.50;87.40;;;;;;2054724;28;20042;-69
2021/06/17 00:13:29;;;;;;;3.60;3.28;;;24.50;87.20;;;;;;2051469;28;20074;-69
2021/06/17 00:14:32;;;;;;;3.65;3.40;;;24.50;87.20;;;;;;2047407;28;20031;-69
2021/06/17 00:15:35;;;;;;;3.67;3.38;;;24.60;87.00;;;;;;2047377;29;20063;-69
2021/06/17 00:16:36;;;;;;;6.13;3.70;;;24.60;86.90;;;;;;2048784;28;20023;-69
2021/06/17 00:17:36;;;;;;;3.92;3.60;;;24.60;87.80;;;;;;2055334;28;20023;-69
2021/06/17 00:18:38;;;;;;;5.10;3.55;;;24.60;87.40;;;;;;2055308;28;20090;-69
2021/06/17 00:19:39;;;;;;;5.03;3.38;;;24.60;87.10;;;;;;2055321;28;20105;-69
2021/06/17 00:20:40;;;;;;;3.28;2.95;;;24.60;87.10;;;;;;2054580;28;20030;-69
2021/06/17 00:21:41;;;;;;;3.65;3.33;;;24.60;87.60;;;;;;2053446;28;20037;-69
2021/06/17 00:22:42;;;;;;;6.57;4.05;;;24.60;87.30;;;;;;2055390;28;20098;-69
2021/06/17 00:23:43;;;;;;;4.78;3.35;;;24.60;87.40;;;;;;2055194;28;20027;-69
2021/06/17 00:24:44;;;;;;;4.47;3.75;;;24.60;86.40;;;;;;2058642;28;20023;-69
2021/06/17 00:25:44;;;;;;;4.88;3.78;;;24.60;85.80;;;;;;2059677;28;20023;-69
2021/06/17 00:26:46;;;;;;;5.10;3.47;;;24.60;86.10;;;;;;2055402;28;20038;-69
2021/06/17 00:27:46;;;;;;;3.75;3.40;;;24.60;85.90;;;;;;2054846;28;20058;-69
2021/06/17 00:28:47;;;;;;;3.67;3.38;;;24.60;86.00;;;;;;2085916;28;20021;-69
2021/06/17 00:29:47;;;;;;;4.15;3.75;;;24.60;85.60;;;;;;2066266;28;20049;-69
2021/06/17 00:30:48;;;;;;;3.95;3.55;;;24.70;85.40;;;;;;2075391;28;20028;-69
2021/06/17 00:31:49;;;;;;;3.80;3.50;;;24.70;85.40;;;;;;2046675;28;20039;-69
2021/06/17 00:32:55;;;;;;;3.42;3.13;;;24.70;85.60;;;;;;2052275;28;20125;-69
2021/06/17 00:33:55;;;;;;;8.70;3.67;;;24.70;85.20;;;;;;2054946;28;20038;-69
2021/06/17 00:34:56;;;;;;;8.05;3.90;;;24.70;85.40;;;;;;2054398;28;20486;-69
2021/06/17 00:35:56;;;;;;;4.85;3.47;;;24.70;85.50;;;;;;2054163;28;20058;-68
2021/06/17 00:36:57;;;;;;;4.30;3.90;;;24.70;85.10;;;;;;2055268;28;20038;-69
2021/06/17 00:38:00;;;;;;;4.55;3.83;;;24.70;84.90;;;;;;2055200;28;20034;-69
2021/06/17 00:39:02;;;;;;;6.75;4.00;;;24.70;84.60;;;;;;2055217;28;20027;-68
2021/06/17 00:40:06;;;;;;;7.60;3.58;;;24.70;84.40;;;;;;2054999;28;20081;-69
2021/06/17 00:41:06;;;;;;;4.25;3.85;;;24.70;83.70;;;;;;2050628;28;20073;-69
2021/06/17 00:42:07;;;;;;;3.42;3.13;;;24.70;84.00;;;;;;2054512;28;20089;-69
2021/06/17 00:43:08;;;;;;;5.30;3.80;;;24.80;84.40;;;;;;2055333;28;20023;-69
2021/06/17 00:44:09;;;;;;;5.30;3.47;;;24.80;84.20;;;;;;2055056;28;20027;-69
2021/06/17 00:45:12;;;;;;;5.80;3.42;;;24.80;83.60;;;;;;2055188;28;20062;-69
2021/06/17 00:46:13;;;;;;;4.68;3.50;;;24.80;83.50;;;;;;2054190;28;20030;-69
2021/06/17 00:47:13;;;;;;;3.70;3.40;;;24.80;83.60;;;;;;2054581;28;20027;-69
2021/06/17 00:48:15;;;;;;;5.20;3.22;;;24.80;84.20;;;;;;2055082;28;20027;-69
2021/06/17 00:49:16;;;;;;;5.28;3.50;;;24.80;84.10;;;;;;2055149;28;20057;-69
2021/06/17 00:50:17;;;;;;;4.07;3.58;;;24.80;84.70;;;;;;2054995;28;20022;-69
2021/06/17 00:51:18;;;;;;;4.63;3.47;;;24.80;84.00;;;;;;2047205;28;20051;-69
2021/06/17 00:52:19;;;;;;;5.07;3.70;;;24.80;84.20;;;;;;2051247;28;20098;-69
2021/06/17 00:53:28;;;;;;;3.80;3.50;;;24.80;84.30;;;;;;2047530;28;20027;-69
2021/06/17 00:54:32;;;;;;;3.90;3.60;;;24.80;84.70;;;;;;2054821;28;20029;-69
2021/06/17 00:55:33;;;;;;;4.15;3.80;;;24.80;84.50;;;;;;2055248;28;20031;-69
2021/06/17 00:56:33;;;;;;;3.40;3.10;;;24.70;85.60;;;;;;2054463;28;20037;-69
2021/06/17 00:57:35;;;;;;;7.00;3.60;;;24.70;85.60;;;;;;2048514;28;20035;-69
2021/06/17 00:58:36;;;;;;;5.80;3.75;;;24.70;84.80;;;;;;2047150;28;20029;-69
2021/06/17 00:59:37;;;;;;;3.35;3.08;;;24.70;84.10;;;;;;2047250;28;20015;-69
2021/06/17 01:00:38;;;;;;;3.95;3.55;;;24.70;84.30;;;;;;2047717;28;20054;-69
2021/06/17 01:01:38;;;;;;;4.28;3.58;;;24.70;84.50;;;;;;2054333;28;20454;-69
2021/06/17 01:02:39;;;;;;;5.43;3.47;;;24.70;84.10;;;;;;2054867;28;20374;-69
2021/06/17 01:03:40;;;;;;;4.47;3.92;;;24.70;84.30;;;;;;2054953;28;20027;-69
2021/06/17 01:04:40;;;;;;;3.85;3.47;;;24.70;84.50;;;;;;2054753;28;20029;-69
2021/06/17 01:05:42;;;;;;;3.97;3.13;;;24.70;84.20;;;;;;2055318;28;20026;-69
2021/06/17 01:06:42;;;;;;;3.72;3.20;;;24.70;84.30;;;;;;2055176;28;20110;-69
2021/06/17 01:08:03;;;;;;;3.90;3.58;;;24.70;85.00;;;;;;2054710;28;20038;-69
2021/06/17 01:09:19;;;;;;;4.60;3.42;;;24.60;85.20;;;;;;2053545;28;20188;-69
2021/06/17 01:10:30;;;;;;;10.10;3.70;;;24.60;86.40;;;;;;2051722;28;20466;-69
2021/06/17 01:11:40;;;;;;;3.63;3.33;;;24.60;87.10;;;;;;2053817;28;20027;-69
2021/06/17 01:13:12;;;;;;;4.13;3.65;;;24.60;87.30;;;;;;2058146;28;20463;-68
2021/06/17 01:14:26;;;;;;;8.15;3.53;;;24.60;86.60;;;;;;2056103;28;20481;-68
2021/06/17 01:15:28;;;;;;;4.32;3.58;;;24.50;86.30;;;;;;2056086;28;20027;-69
2021/06/17 01:16:32;;;;;;;4.50;3.75;;;24.50;86.40;;;;;;2054785;28;20026;-69
2021/06/17 01:17:35;;;;;;;3.88;3.30;;;24.50;86.60;;;;;;2054978;28;20031;-69
2021/06/17 01:18:43;;;;;;;4.47;3.42;;;24.50;85.90;;;;;;2055133;28;20019;-69
2021/06/17 01:20:02;;;;;;;4.53;3.83;;;24.40;86.10;;;;;;2052325;28;20027;-69
2021/06/17 01:21:11;;;;;;;3.85;3.42;;;24.40;85.80;;;;;;2047129;28;20031;-69
2021/06/17 01:22:15;;;;;;;11.10;3.80;;;24.40;86.60;;;;;;2045567;29;20456;-69
2021/06/17 01:23:49;;;;;;;5.10;3.58;;;24.40;86.90;;;;;;2067233;28;20034;-68
2021/06/17 01:25:15;;;;;;;4.30;3.38;;;24.40;86.90;;;;;;2068197;28;20035;-69
2021/06/17 01:26:48;;;;;;;4.90;3.72;;;24.30;86.00;;;;;;2048991;28;20698;-69
2021/06/17 01:28:06;;;;;;;4.43;3.50;;;24.30;86.80;;;;;;2070485;28;20076;-69
2021/06/17 01:29:14;;;;;;;4.30;3.22;;;24.30;87.80;;;;;;2053696;28;20110;-69
2021/06/17 01:30:16;;;;;;;3.95;3.65;;;24.30;88.70;;;;;;2063290;28;20401;-69
2021/06/17 01:31:22;;;;;;;3.65;3.35;;;24.30;88.50;;;;;;2060900;28;20471;-68
2021/06/17 01:32:25;;;;;;;4.47;3.90;;;24.30;89.00;;;;;;2046807;28;20031;-69
2021/06/17 01:33:30;;;;;;;6.10;4.25;;;24.30;88.30;;;;;;2049727;28;20076;-69
2021/06/17 01:34:31;;;;;;;5.75;3.92;;;24.30;89.60;;;;;;2054689;28;20049;-69
2021/06/17 01:35:39;;;;;;;4.57;3.55;;;24.30;90.10;;;;;;2054551;28;20656;-69
2021/06/17 01:36:49;;;;;;;4.80;4.20;;;24.30;89.60;;;;;;2054720;28;20031;-69
2021/06/17 01:37:54;;;;;;;4.03;3.30;;;24.20;90.00;;;;;;2054510;28;20023;-69
2021/06/17 01:39:00;;;;;;;4.10;3.70;;;24.20;89.70;;;;;;2055031;28;20023;-69
2021/06/17 01:40:02;;;;;;;4.75;4.10;;;24.20;90.10;;;;;;2054908;28;20378;-69
2021/06/17 01:41:04;;;;;;;4.78;3.90;;;24.20;89.90;;;;;;2054715;28;20039;-69
2021/06/17 01:42:08;;;;;;;5.50;3.92;;;24.20;89.70;;;;;;2054134;28;20019;-69
2021/06/17 01:43:09;;;;;;;5.65;3.60;;;24.20;89.50;;;;;;2054562;28;20039;-69
2021/06/17 01:44:10;;;;;;;5.25;3.50;;;24.20;89.20;;;;;;2054645;28;20062;-69
2021/06/17 01:45:12;;;;;;;6.20;3.65;;;24.10;89.30;;;;;;2055157;28;20534;-69
2021/06/17 01:46:14;;;;;;;6.28;4.15;;;24.10;89.20;;;;;;2047813;28;20088;-69
2021/06/17 01:47:14;;;;;;;5.88;4.07;;;24.10;89.00;;;;;;2046993;28;20027;-69
2021/06/17 01:48:16;;;;;;;4.22;3.83;;;24.10;89.70;;;;;;2054098;28;20106;-69
2021/06/17 01:49:17;;;;;;;6.78;4.38;;;24.10;90.20;;;;;;2054919;28;20023;-69
2021/06/17 01:50:21;;;;;;;4.43;4.00;;;24.10;89.90;;;;;;2054797;28;20027;-68
2021/06/17 01:51:25;;;;;;;6.63;4.40;;;24.10;89.80;;;;;;2054205;28;20140;-69
2021/06/17 01:52:28;;;;;;;5.47;3.92;;;24.10;89.80;;;;;;2054320;28;20461;-69
2021/06/17 01:53:30;;;;;;;5.20;3.72;;;24.10;90.10;;;;;;2055014;28;20039;-69
2021/06/17 01:54:31;;;;;;;5.15;3.92;;;24.10;89.70;;;;;;2054633;28;20030;-69
2021/06/17 01:55:35;;;;;;;6.00;4.10;;;24.10;90.30;;;;;;2054808;28;20051;-69
2021/06/17 01:56:36;;;;;;;5.65;4.28;;;24.10;90.40;;;;;;2054418;28;20532;-69
2021/06/17 01:57:39;;;;;;;4.43;3.92;;;24.00;90.20;;;;;;2047957;28;20030;-69
2021/06/17 01:58:41;;;;;;;4.57;3.90;;;24.00;90.40;;;;;;2051222;28;20027;-69
2021/06/17 01:59:44;;;;;;;4.90;4.28;;;24.00;91.20;;;;;;2054644;28;20102;-69
2021/06/17 02:00:47;;;;;;;4.97;4.50;;;24.00;91.40;;;;;;2055012;28;20022;-69
2021/06/17 02:01:50;;;;;;;7.28;4.75;;;24.00;91.40;;;;;;2055462;28;20359;-69
2021/06/17 02:02:52;;;;;;;5.70;4.38;;;24.00;91.30;;;;;;2055689;28;20483;-69
2021/06/17 02:03:53;;;;;;;10.98;4.70;;;24.00;90.90;;;;;;2055911;28;20019;-69
2021/06/17 02:04:55;;;;;;;5.55;4.78;;;24.00;90.90;;;;;;2055203;28;20046;-69
2021/06/17 02:05:56;;;;;;;4.25;3.85;;;24.00;91.50;;;;;;2047390;29;20442;-69
2021/06/17 02:06:58;;;;;;;5.35;4.07;;;24.00;91.10;;;;;;2047167;28;20526;-68
2021/06/17 02:08:00;;;;;;;6.13;4.70;;;23.90;90.90;;;;;;2048261;28;20093;-69
2021/06/17 02:09:01;;;;;;;6.95;4.47;;;23.90;90.70;;;;;;2054803;28;20031;-69
2021/06/17 02:10:02;;;;;;;6.35;4.50;;;23.90;90.60;;;;;;2055746;28;20114;-69
2021/06/17 02:11:03;;;;;;;5.38;3.88;;;23.90;90.70;;;;;;2055932;28;20033;-68
2021/06/17 02:12:04;;;;;;;7.57;4.13;;;23.90;90.80;;;;;;2055343;28;20030;-68
2021/06/17 02:13:06;;;;;;;4.57;4.18;;;23.90;90.70;;;;;;2055576;28;20814;-69
2021/06/17 02:14:14;;;;;;;5.00;4.43;;;23.90;90.60;;;;;;2055764;28;20038;-69
2021/06/17 02:15:17;;;;;;;6.05;4.10;;;23.90;90.80;;;;;;2055689;28;20026;-69
2021/06/17 02:16:20;;;;;;;6.50;4.03;;;23.90;90.90;;;;;;2055000;28;20163;-68
2021/06/17 02:17:22;;;;;;;8.60;4.47;;;23.80;91.00;;;;;;2047679;28;20034;-68
2021/06/17 02:18:25;;;;;;;4.63;4.13;;;23.80;90.80;;;;;;2047895;28;20028;-68
2021/06/17 02:19:28;;;;;;;9.52;4.10;;;23.80;90.80;;;;;;2047722;28;20042;-68
2021/06/17 02:20:29;;;;;;;6.13;4.22;;;23.80;90.80;;;;;;2048169;28;20027;-68
2021/06/17 02:21:31;;;;;;;6.88;4.13;;;23.80;90.80;;;;;;2054388;28;20031;-68
2021/06/17 02:22:34;;;;;;;4.95;4.05;;;23.80;91.00;;;;;;2055594;28;20429;-68
2021/06/17 02:23:36;;;;;;;5.35;3.97;;;23.80;91.40;;;;;;2054593;28;20027;-68
2021/06/17 02:24:39;;;;;;;5.07;4.32;;;23.80;91.20;;;;;;2055307;28;20094;-68
2021/06/17 02:25:42;;;;;;;4.72;4.30;;;23.80;91.60;;;;;;2055404;28;20047;-68
2021/06/17 02:26:45;;;;;;;5.72;4.30;;;23.80;91.60;;;;;;2055629;28;20085;-68
2021/06/17 02:27:51;;;;;;;4.53;3.90;;;23.80;91.70;;;;;;2055468;28;20035;-68
2021/06/17 02:28:54;;;;;;;7.50;4.57;;;23.80;91.40;;;;;;2090477;28;20031;-69
2021/06/17 02:30:00;;;;;;;5.45;3.95;;;23.80;91.70;;;;;;2061325;28;20105;-69
2021/06/17 02:31:06;;;;;;;5.07;4.10;;;23.70;91.30;;;;;;2073086;28;20034;-68
2021/06/17 02:32:09;;;;;;;5.60;4.60;;;23.70;91.10;;;;;;2049027;28;20019;-68
2021/06/17 02:33:13;;;;;;;7.88;3.80;;;23.70;90.90;;;;;;2050741;28;20077;-68
2021/06/17 02:34:15;;;;;;;8.68;3.67;;;23.70;91.20;;;;;;2055556;28;20068;-68
2021/06/17 02:35:21;;;;;;;8.93;4.10;;;23.70;91.10;;;;;;2055456;28;20047;-69
2021/06/17 02:36:27;;;;;;;9.70;4.20;;;23.70;91.20;;;;;;2055126;28;20031;-69
2021/06/17 02:37:30;;;;;;;5.95;3.78;;;23.70;91.20;;;;;;2054064;28;20026;-69
2021/06/17 02:38:34;;;;;;;6.30;4.35;;;23.70;91.50;;;;;;2047878;28;20031;-69
2021/06/17 02:39:35;;;;;;;4.15;3.75;;;23.70;91.20;;;;;;2047859;28;20033;-69
2021/06/17 02:40:41;;;;;;;4.45;4.05;;;23.70;91.20;;;;;;2047658;29;20027;-69
2021/06/17 02:41:48;;;;;;;4.30;3.53;;;23.70;91.40;;;;;;2051403;28;20076;-69
2021/06/17 02:42:52;;;;;;;4.43;3.95;;;23.70;91.30;;;;;;2055820;28;20019;-69
2021/06/17 02:43:55;;;;;;;5.22;4.15;;;23.70;90.90;;;;;;2055016;28;20160;-69
2021/06/17 02:44:57;;;;;;;4.13;3.70;;;23.60;90.80;;;;;;2050518;28;20027;-69
2021/06/17 02:45:57;;;;;;;5.00;3.83;;;23.60;91.00;;;;;;2055879;28;20098;-68
2021/06/17 02:46:58;;;;;;;5.15;4.22;;;23.70;90.90;;;;;;2055409;28;20100;-68
2021/06/17 02:47:58;;;;;;;6.10;3.83;;;23.70;90.90;;;;;;2060643;28;20036;-68
2021/06/17 02:48:59;;;;;;;5.57;4.00;;;23.70;90.90;;;;;;2053503;28;20140;-68
2021/06/17 02:50:00;;;;;;;5.85;3.70;;;23.70;91.00;;;;;;2055740;28;20030;-68
2021/06/17 02:51:00;;;;;;;5.25;3.67;;;23.70;90.90;;;;;;2055458;28;20431;-68
2021/06/17 02:52:01;;;;;;;6.25;4.05;;;23.70;90.80;;;;;;2053787;28;20031;-68
2021/06/17 02:53:02;;;;;;;3.70;3.38;;;23.70;90.80;;;;;;2047618;29;20047;-68
2021/06/17 02:54:03;;;;;;;6.38;4.20;;;23.70;90.90;;;;;;2054389;28;20123;-68
2021/06/17 02:55:04;;;;;;;4.90;3.63;;;23.70;90.80;;;;;;2054789;28;20110;-68
2021/06/17 02:56:30;;;;;;;4.55;3.80;;;23.70;90.70;;;;;;2055307;28;20034;-68
2021/06/17 02:57:51;;;;;;;7.75;4.13;;;23.70;91.20;;;;;;2055644;28;20023;-68
2021/06/17 02:59:18;;;;;;;4.32;3.92;;;23.60;90.90;;;;;;2054658;28;20023;-68
2021/06/17 03:00:21;;;;;;;4.00;3.70;;;23.60;91.10;;;;;;2055303;28;20082;-68
2021/06/17 03:01:34;;;;;;;5.55;4.25;;;23.60;91.00;;;;;;2055138;28;20031;-68
2021/06/17 03:02:55;;;;;;;4.55;4.10;;;23.60;91.10;;;;;;2054505;28;20038;-68
2021/06/17 03:03:59;;;;;;;6.47;3.90;;;23.60;91.10;;;;;;2054118;28;20053;-68
2021/06/17 03:05:18;;;;;;;4.47;4.00;;;23.60;91.20;;;;;;2054054;28;20023;-68
2021/06/17 03:06:30;;;;;;;6.53;4.63;;;23.60;91.30;;;;;;2055060;28;20085;-68
2021/06/17 03:07:37;;;;;;;9.13;4.32;;;23.60;91.30;;;;;;2054968;28;20482;-68
2021/06/17 03:08:49;;;;;;;5.28;4.45;;;23.60;91.40;;;;;;2054624;28;20104;-68
2021/06/17 03:09:55;;;;;;;5.68;4.70;;;23.60;91.20;;;;;;2059853;28;20045;-68
2021/06/17 03:11:01;;;;;;;7.30;4.32;;;23.60;91.40;;;;;;2061741;28;20083;-68
2021/06/17 03:12:02;;;;;;;4.72;4.13;;;23.60;91.40;;;;;;2047610;28;20024;-68
2021/06/17 03:13:05;;;;;;;7.05;4.00;;;23.60;91.40;;;;;;2046381;28;20027;-68
2021/06/17 03:14:12;;;;;;;6.00;4.43;;;23.60;91.50;;;;;;2052209;28;20026;-68
2021/06/17 03:15:13;;;;;;;6.22;3.97;;;23.60;91.40;;;;;;2048858;28;20032;-68
2021/06/17 03:16:19;;;;;;;8.18;4.03;;;23.60;91.40;;;;;;2051061;28;20031;-68
2021/06/17 03:17:20;;;;;;;8.52;4.22;;;23.60;91.40;;;;;;2046443;28;20088;-68
2021/06/17 03:18:25;;;;;;;4.65;4.18;;;23.60;91.30;;;;;;2051090;28;20019;-68
2021/06/17 03:19:27;;;;;;;5.10;4.10;;;23.60;91.30;;;;;;2054202;28;20026;-68
2021/06/17 03:20:31;;;;;;;6.43;4.22;;;23.60;91.70;;;;;;2054573;28;20015;-68
2021/06/17 03:21:35;;;;;;;5.57;3.85;;;23.60;91.40;;;;;;2053494;28;20042;-68
2021/06/17 03:22:41;;;;;;;5.40;4.40;;;23.60;91.50;;;;;;2049555;28;20030;-68
2021/06/17 03:23:43;;;;;;;5.13;4.25;;;23.60;91.60;;;;;;2053986;28;20492;-69
2021/06/17 03:24:48;;;;;;;4.93;4.35;;;23.60;91.50;;;;;;2053503;28;20022;-68
2021/06/17 03:25:52;;;;;;;4.88;4.00;;;23.50;91.50;;;;;;2051619;28;20023;-68
2021/06/17 03:26:55;;;;;;;5.05;4.13;;;23.60;91.60;;;;;;2060406;28;20042;-68
2021/06/17 03:27:58;;;;;;;9.30;4.45;;;23.50;91.60;;;;;;2055196;28;20486;-68
2021/06/17 03:29:01;;;;;;;6.15;4.65;;;23.60;91.40;;;;;;2054250;28;20466;-68
2021/06/17 03:30:04;;;;;;;5.05;4.00;;;23.60;91.50;;;;;;2060209;28;20027;-68
2021/06/17 03:31:08;;;;;;;5.15;3.95;;;23.50;91.50;;;;;;2048566;28;20033;-68
2021/06/17 03:32:10;;;;;;;6.70;4.53;;;23.50;91.60;;;;;;2047069;28;20028;-68
2021/06/17 03:33:12;;;;;;;5.05;3.85;;;23.50;91.30;;;;;;2054109;28;20114;-68
2021/06/17 03:34:13;;;;;;;5.53;3.83;;;23.60;91.40;;;;;;2053536;28;20034;-68
2021/06/17 03:35:20;;;;;;;7.97;4.10;;;23.60;91.30;;;;;;2058469;28;20053;-68
2021/06/17 03:36:23;;;;;;;4.68;4.07;;;23.60;91.50;;;;;;2061139;28;20030;-68
2021/06/17 03:37:26;;;;;;;4.70;4.15;;;23.60;91.40;;;;;;2052078;28;20035;-68
2021/06/17 03:38:28;;;;;;;4.65;4.05;;;23.60;91.50;;;;;;2055662;28;20062;-68
2021/06/17 03:39:30;;;;;;;4.90;4.18;;;23.60;91.60;;;;;;2055607;28;20031;-68
2021/06/17 03:40:32;;;;;;;5.10;3.92;;;23.60;91.50;;;;;;2055783;28;20062;-68
2021/06/17 03:41:34;;;;;;;4.28;3.88;;;23.60;91.50;;;;;;2047319;28;20031;-68
2021/06/17 03:42:36;;;;;;;4.60;4.00;;;23.60;91.60;;;;;;2047522;28;20474;-68
2021/06/17 03:43:39;;;;;;;5.05;3.95;;;23.60;91.50;;;;;;2048798;28;20073;-68
2021/06/17 03:44:42;;;;;;;5.63;3.85;;;23.60;91.60;;;;;;2055407;28;20062;-68
2021/06/17 03:45:44;;;;;;;6.07;3.83;;;23.60;91.70;;;;;;2055311;28;20031;-69
2021/06/17 03:46:46;;;;;;;7.22;3.92;;;23.60;91.70;;;;;;2055581;28;20045;-69
2021/06/17 03:47:48;;;;;;;4.38;3.97;;;23.60;91.70;;;;;;2055755;28;20562;-69
2021/06/17 03:48:49;;;;;;;7.53;3.72;;;23.60;91.50;;;;;;2055541;28;20035;-68
2021/06/17 03:49:53;;;;;;;4.80;3.92;;;23.60;91.60;;;;;;2055368;28;20023;-68
2021/06/17 03:50:53;;;;;;;5.05;3.80;;;23.60;91.60;;;;;;2050985;28;20027;-68
2021/06/17 03:51:56;;;;;;;4.63;3.70;;;23.60;92.00;;;;;;2054862;28;20046;-68
2021/06/17 03:52:57;;;;;;;6.78;3.88;;;23.60;91.80;;;;;;2048141;28;20040;-69
2021/06/17 03:53:58;;;;;;;4.40;4.00;;;23.60;91.60;;;;;;2051953;28;20057;-69
2021/06/17 03:55:00;;;;;;;9.98;4.20;;;23.60;91.70;;;;;;2047610;28;20069;-69
2021/06/17 03:56:01;;;;;;;8.52;4.43;;;23.60;91.90;;;;;;2053641;28;20041;-69
2021/06/17 03:57:04;;;;;;;4.05;3.50;;;23.70;92.10;;;;;;2053454;28;20083;-69
2021/06/17 03:58:05;;;;;;;6.55;3.70;;;23.70;91.80;;;;;;2046999;28;20443;-69
2021/06/17 03:59:07;;;;;;;4.68;4.03;;;23.70;91.50;;;;;;2054881;28;20030;-69
2021/06/17 04:00:09;;;;;;;5.75;4.13;;;23.70;91.70;;;;;;2062784;28;20026;-69
2021/06/17 04:01:11;;;;;;;7.05;4.38;;;23.80;91.90;;;;;;2052082;28;20031;-69
2021/06/17 04:02:12;;;;;;;5.82;4.18;;;23.80;91.70;;;;;;2054862;28;20038;-69
2021/06/17 04:03:13;;;;;;;7.70;4.25;;;23.90;91.40;;;;;;2055313;28;20094;-68
2021/06/17 04:04:13;;;;;;;4.07;3.53;;;23.80;91.40;;;;;;2054915;28;20167;-68
2021/06/17 04:05:14;;;;;;;6.80;3.88;;;23.90;90.90;;;;;;2053523;28;20091;-69
2021/06/17 04:06:16;;;;;;;5.70;3.75;;;23.90;90.80;;;;;;2055765;28;20023;-69
2021/06/17 04:07:23;;;;;;;4.57;4.13;;;24.00;90.70;;;;;;2055044;28;20083;-69
2021/06/17 04:08:28;;;;;;;4.95;3.90;;;24.10;90.80;;;;;;2055774;28;20026;-68
2021/06/17 04:09:34;;;;;;;4.22;3.72;;;24.10;90.40;;;;;;2055336;28;20080;-68
2021/06/17 04:10:35;;;;;;;4.22;3.53;;;24.10;90.20;;;;;;2055696;28;20027;-68
2021/06/17 04:11:36;;;;;;;4.57;4.10;;;24.20;90.00;;;;;;2054759;28;20031;-69
2021/06/17 04:12:38;;;;;;;5.70;3.88;;;24.30;90.00;;;;;;2055249;28;20110;-69
2021/06/17 04:13:41;;;;;;;4.32;3.45;;;24.40;88.60;;;;;;2054705;28;20019;-68
2021/06/17 04:14:44;;;;;;;4.13;3.70;;;24.60;87.40;;;;;;2055317;28;20015;-69
2021/06/17 04:15:48;;;;;;;5.45;3.25;;;24.80;86.30;;;;;;2055195;28;20378;-69
2021/06/17 04:16:51;;;;;;;4.38;3.63;;;25.00;83.90;;;;;;2055241;28;20367;-69
2021/06/17 04:17:56;;;;;;;7.57;3.70;;;25.30;83.00;;;;;;2054383;28;20019;-69
2021/06/17 04:18:57;;;;;;;5.60;3.70;;;25.50;80.30;;;;;;2053753;28;20038;-69
2021/06/17 04:20:03;;;;;;;5.88;3.78;;;25.80;78.10;;;;;;2050885;28;20084;-69
2021/06/17 04:21:05;;;;;;;3.88;3.28;;;26.00;76.70;;;;;;2055576;28;20038;-69
2021/06/17 04:22:08;;;;;;;4.80;3.50;;;26.30;75.00;;;;;;2054355;28;20918;-69
2021/06/17 04:23:10;;;;;;;3.97;3.53;;;26.50;72.80;;;;;;2055398;28;20031;-69
2021/06/17 04:24:11;;;;;;;5.43;3.25;;;26.60;71.50;;;;;;2055191;28;20553;-69
2021/06/17 04:25:12;;;;;;;3.33;3.08;;;26.80;70.30;;;;;;2062634;28;20035;-69
2021/06/17 04:26:18;;;;;;;3.67;3.38;;;27.00;70.20;;;;;;2054879;28;20387;-69
2021/06/17 04:27:22;;;;;;;4.47;3.55;;;27.10;68.00;;;;;;2048954;28;20479;-68
2021/06/17 04:28:26;;;;;;;3.50;3.20;;;27.10;67.80;;;;;;2078030;28;20039;-68
2021/06/17 04:29:28;;;;;;;3.72;2.95;;;27.10;67.70;;;;;;2070769;28;20024;-69
2021/06/17 04:30:30;;;;;;;4.18;3.30;;;27.10;66.70;;;;;;2068378;28;20473;-68
2021/06/17 04:31:32;;;;;;;4.05;3.03;;;27.10;66.80;;;;;;2055113;28;20034;-69
2021/06/17 04:32:34;;;;;;;6.03;3.38;;;27.00;67.80;;;;;;2057120;28;20066;-69
2021/06/17 04:33:35;;;;;;;4.25;3.00;;;27.00;67.30;;;;;;2076819;28;20472;-68
2021/06/17 04:34:39;;;;;;;3.25;3.00;;;26.90;67.60;;;;;;2053036;28;20038;-68
2021/06/17 04:35:43;;;;;;;5.57;2.97;;;26.90;67.60;;;;;;2049880;28;20043;-68
2021/06/17 04:36:45;;;;;;;4.50;3.58;;;26.90;68.10;;;;;;2054178;28;20057;-69
2021/06/17 04:37:46;;;;;;;3.53;2.88;;;26.90;69.00;;;;;;2048581;28;20088;-69
2021/06/17 04:38:49;;;;;;;3.58;3.00;;;26.90;70.10;;;;;;2046688;28;20066;-69
2021/06/17 04:39:53;;;;;;;3.85;2.65;;;27.00;68.90;;;;;;2048476;28;20016;-68
2021/06/17 04:40:54;;;;;;;4.32;3.30;;;27.00;68.40;;;;;;2049815;28;20042;-68
2021/06/17 04:41:56;;;;;;;3.55;3.25;;;27.00;68.30;;;;;;2048977;28;20030;-69
2021/06/17 04:42:59;;;;;;;7.25;3.67;;;27.00;68.50;;;;;;2047167;28;20024;-69
2021/06/17 04:44:03;;;;;;;3.63;3.33;;;27.10;68.20;;;;;;2055418;28;20025;-69
2021/06/17 04:45:04;;;;;;;5.65;3.08;;;27.10;66.50;;;;;;2055388;28;20032;-69
2021/06/17 04:46:05;;;;;;;3.10;2.80;;;27.20;67.70;;;;;;2062613;28;20589;-69
2021/06/17 04:47:07;;;;;;;4.45;3.03;;;27.30;67.20;;;;;;2053286;28;20030;-68
2021/06/17 04:48:11;;;;;;;8.27;2.95;;;27.30;67.30;;;;;;2051438;28;20038;-68
2021/06/17 04:49:13;;;;;;;3.10;2.90;;;27.30;65.50;;;;;;2052545;28;20027;-69
2021/06/17 04:50:14;;;;;;;3.08;2.70;;;27.30;67.00;;;;;;2051125;28;20034;-68
2021/06/17 04:51:16;;;;;;;5.45;3.08;;;27.40;67.00;;;;;;2050867;28;20157;-68
2021/06/17 04:52:30;;;;;;;6.47;3.05;;;27.40;67.40;;;;;;2050281;28;20707;-68
2021/06/17 04:53:31;;;;;;;4.80;3.00;;;27.50;64.90;;;;;;2051295;28;20042;-68
2021/06/17 04:54:31;;;;;;;4.78;2.75;;;27.60;67.80;;;;;;2047914;28;20024;-68
2021/06/17 04:55:35;;;;;;;3.30;3.00;;;27.60;65.60;;;;;;2048637;28;20031;-68
2021/06/17 04:56:36;;;;;;;5.47;2.95;;;27.60;66.10;;;;;;2047346;28;20058;-68
2021/06/17 04:57:36;;;;;;;2.92;2.58;;;27.70;64.60;;;;;;2047751;28;20035;-68
2021/06/17 04:58:39;;;;;;;2.58;2.38;;;27.70;64.60;;;;;;2048579;28;20104;-68
2021/06/17 04:59:39;;;;;;;3.42;2.97;;;27.70;64.90;;;;;;2047166;28;20023;-68
2021/06/17 05:00:40;;;;;;;3.55;2.90;;;27.70;63.90;;;;;;2055656;28;20023;-68
2021/06/17 05:01:41;;;;;;;5.45;2.63;;;27.80;63.10;;;;;;2054434;28;20023;-68
2021/06/17 05:02:42;;;;;;;3.65;2.50;;;27.80;63.50;;;;;;2054949;28;20492;-68
2021/06/17 05:03:42;;;;;;;4.28;2.80;;;27.90;64.60;;;;;;2054839;28;20446;-68
2021/06/17 05:04:43;;;;;;;4.28;2.72;;;28.00;64.50;;;;;;2054947;28;20049;-68
2021/06/17 05:05:45;;;;;;;2.95;2.63;;;28.00;64.00;;;;;;2054852;28;20023;-68
2021/06/17 05:07:09;;;;;;;9.10;3.75;;;28.10;64.10;;;;;;2054953;28;20038;-68
2021/06/17 05:10:52;;;;;;;4.97;2.92;;;28.20;63.50;;;;;;2054151;28;20110;-69
2021/06/17 05:11:53;;;;;;;6.57;2.60;;;28.30;61.60;;;;;;2052747;28;20062;-69
2021/06/17 05:12:53;;;;;;;4.68;2.65;;;28.30;60.90;;;;;;2061848;28;20029;-69
2021/06/17 05:13:54;;;;;;;4.20;2.95;;;28.40;60.30;;;;;;2072706;28;20685;-69
2021/06/17 05:14:56;;;;;;;6.45;2.72;;;28.40;61.20;;;;;;2056092;28;20023;-69
2021/06/17 05:15:59;;;;;;;3.20;2.80;;;28.40;62.10;;;;;;2064617;28;20030;-69
2021/06/17 05:17:00;;;;;;;4.72;2.95;;;28.50;61.20;;;;;;2056472;28;20137;-68
2021/06/17 05:18:00;;;;;;;6.20;3.03;;;28.60;61.40;;;;;;2061667;28;20031;-68
2021/06/17 05:19:01;;;;;;;3.58;2.72;;;28.60;60.70;;;;;;2058210;28;20029;-68
2021/06/17 05:20:03;;;;;;;3.55;3.25;;;28.70;61.00;;;;;;2056448;28;20035;-68
2021/06/17 05:21:05;;;;;;;7.22;2.60;;;28.70;59.70;;;;;;2054182;28;20054;-69
2021/06/17 05:22:09;;;;;;;3.60;2.70;;;28.80;60.60;;;;;;2054162;28;20110;-68
2021/06/17 05:23:19;;;;;;;3.80;2.63;;;28.80;59.60;;;;;;2065684;28;20382;-68
2021/06/17 05:24:19;;;;;;;;;;;28.90;58.40;;;;;;2056413;28;20084;-69
2021/06/17 05:25:20;;;;;;;4.43;3.03;;;28.80;56.60;;;;;;2069191;28;19917;-69
2021/06/17 05:26:22;;;;;;;4.38;3.15;;;28.90;59.70;;;;;;2054785;28;116395;-69
2021/06/17 05:27:23;;;;;;;3.65;2.72;;;28.90;59.00;;;;;;2061710;28;20615;-69
2021/06/17 05:28:25;;;;;;;3.55;2.75;;;29.00;59.50;;;;;;2057585;28;20051;-69
2021/06/17 05:29:26;;;;;;;3.38;2.80;;;29.10;59.50;;;;;;2057341;28;20504;-69
2021/06/17 05:30:26;;;;;;;3.97;2.95;;;29.10;58.10;;;;;;2054606;28;21396;-68
2021/06/17 05:31:27;;;;;;;4.85;2.60;;;29.20;58.20;;;;;;2052409;28;20500;-68
2021/06/17 05:32:28;;;;;;;5.32;2.95;;;29.30;58.30;;;;;;2054191;28;20031;-70
2021/06/17 05:33:30;;;;;;;4.63;3.28;;;29.30;58.40;;;;;;2055261;28;20023;-70
2021/06/17 05:34:31;;;;;;;3.30;2.92;;;29.40;58.70;;;;;;2055019;28;20042;-70